Terminal Aerodrome Forecast
Issued by NWS

Home | Current Version | Previous Version | Text Only | Print | Product List | Glossary On
Versions: 1 2 3 4 5 6 7 8 9 10 11 12 13 14
000
FTUS44 KLIX 011729
TAFGPT
TAF
KGPT 011729Z 0118/0218 22007KT P6SM FEW035
     FM012200 24011KT P6SM SCT040
      TEMPO 0122/0124 VRB25KT 2SM TSRA BKN025CB
     FM020100 25005KT P6SM SCT250
     FM021600 24010KT P6SM SCT035=

USA.gov is the U.S. government's official web portal to all federal, state and local government web resources and services.